Mount Washington, Pennsylvania
Current Conditions -  °F | °C
As of 4:29 PM on Wednesday 26 Nov 2014 (Local Time) from KAGC Reporting Station
Haze Haze  
Wind Chill: 32°   Ceiling: 300
Heat Index: 32°   Visibility: 1mi
Dew Point: 29°   Wind: 3mph
Humidity: 88%   Direction: 330°NNW
Pressure: 29.99"   Gusts: NA
Location:  40.4305°N, 80.015°W
Report Text: KAGC 262129Z 33003KT 1SM R28/6000VP6000FT BR OVC003 00/M02 A2999 RMK AO2 SNE03 P0000 T00001017
Loading
Personal Weather Stations






























Interactive Weather Map New forecast layout! Learn more

10-Day Weather Forecast

Advertisements
Track Severe Weather on mobile